Time;durP1;ratioP1;P1;durP2;ratioP2;P2;SDS_P1;SDS_P2;PMS_P1;PMS_P2;Temp;Humidity;BMP_temperature;BMP_pressure;BME280_temperature;BME280_humidity;BME280_pressure;Samples;Min_cycle;Max_cycle;Signal;HPM_P1;HPM_P2
2022/11/09 00:01:13;;;;;;;16.23;9.23;;;;;;;5.82;100.00;96415.03;5036014;28;20045;-66
2022/11/09 00:03:39;;;;;;;16.88;9.40;;;;;;;5.61;100.00;96417.91;5023095;28;20044;-65
2022/11/09 00:06:04;;;;;;;12.77;8.63;;;;;;;5.52;100.00;96415.28;5034917;28;20077;-64
2022/11/09 00:08:30;;;;;;;12.93;9.40;;;;;;;5.52;100.00;96423.44;5039746;28;20036;-65
2022/11/09 00:11:02;;;;;;;18.58;9.82;;;;;;;5.53;100.00;96423.09;5042825;28;20053;-65
2022/11/09 00:13:27;;;;;;;16.77;9.85;;;;;;;5.53;100.00;96417.66;5047548;28;20037;-64
2022/11/09 00:15:57;;;;;;;17.48;8.63;;;;;;;5.52;100.00;96423.44;5040121;28;20082;-64
2022/11/09 00:18:23;;;;;;;13.93;8.13;;;;;;;5.42;100.00;96434.75;5034365;28;20401;-65
2022/11/09 00:20:48;;;;;;;13.48;9.40;;;;;;;5.20;100.00;96428.63;5040264;28;20067;-64
2022/11/09 00:23:15;;;;;;;13.70;9.15;;;;;;;5.16;100.00;96435.88;5035669;28;20566;-65
2022/11/09 00:25:40;;;;;;;13.57;8.98;;;;;;;5.24;100.00;96428.75;5039315;28;20048;-66
2022/11/09 00:28:05;;;;;;;15.93;8.00;;;;;;;5.26;100.00;96419.16;5033138;28;20049;-64
2022/11/09 00:30:31;;;;;;;13.23;8.07;;;;;;;5.26;100.00;96419.16;5038942;28;20037;-63
2022/11/09 00:32:56;;;;;;;12.93;7.70;;;;;;;5.22;100.00;96418.25;5047176;28;20104;-65
2022/11/09 00:35:21;;;;;;;13.65;8.07;;;;;;;5.24;100.00;96421.41;5043423;28;20110;-66
2022/11/09 00:37:47;;;;;;;15.52;7.93;;;;;;;5.23;100.00;96425.25;5041975;28;20048;-65
2022/11/09 00:40:12;;;;;;;13.90;7.60;;;;;;;5.27;100.00;96422.66;5021009;28;20405;-66
2022/11/09 00:42:38;;;;;;;13.10;7.63;;;;;;;5.29;100.00;96420.38;5044816;28;20049;-65
2022/11/09 00:45:03;;;;;;;12.45;7.90;;;;;;;5.17;100.00;96424.69;5050613;28;20074;-64
2022/11/09 00:47:29;;;;;;;14.38;7.78;;;;;;;5.08;100.00;96424.00;5045171;28;20052;-66
2022/11/09 00:49:54;;;;;;;11.27;8.27;;;;;;;5.00;100.00;96414.03;5042110;28;20079;-65
2022/11/09 00:52:20;;;;;;;14.73;8.02;;;;;;;4.90;100.00;96419.91;5037947;28;20567;-66
2022/11/09 00:54:45;;;;;;;13.02;7.72;;;;;;;4.88;100.00;96419.41;5041725;28;20078;-65
2022/11/09 00:57:12;;;;;;;11.15;7.20;;;;;;;4.66;100.00;96428.75;5038278;28;20124;-66
2022/11/09 00:59:37;;;;;;;13.98;7.75;;;;;;;4.57;100.00;96426.94;5042929;28;20070;-66
2022/11/09 01:02:03;;;;;;;13.52;7.35;;;;;;;4.72;100.00;96435.56;5039958;28;20067;-64
2022/11/09 01:04:28;;;;;;;17.95;9.77;;;;;;;4.58;100.00;96422.28;5042197;28;20041;-64
2022/11/09 01:06:54;;;;;;;15.98;8.60;;;;;;;4.65;100.00;96432.63;5039556;28;20041;-65
2022/11/09 01:09:19;;;;;;;12.60;8.20;;;;;;;4.67;100.00;96425.72;5037185;28;20065;-66
2022/11/09 01:11:44;;;;;;;18.15;8.25;;;;;;;4.58;100.00;96427.72;5043060;28;20033;-65
2022/11/09 01:14:10;;;;;;;12.52;7.53;;;;;;;4.55;100.00;96420.25;5038480;28;20041;-65
2022/11/09 01:16:36;;;;;;;11.25;7.28;;;;;;;4.62;100.00;96423.19;5044555;28;20067;-66
2022/11/09 01:19:02;;;;;;;9.50;6.97;;;;;;;4.72;100.00;96428.22;5043714;28;20476;-65
2022/11/09 01:21:27;;;;;;;16.80;8.13;;;;;;;4.67;100.00;96428.44;5039314;28;20040;-65
2022/11/09 01:23:54;;;;;;;18.08;7.50;;;;;;;4.72;100.00;96428.22;5044421;28;20120;-66
2022/11/09 01:26:20;;;;;;;11.60;7.35;;;;;;;4.37;100.00;96431.25;5051792;28;20489;-65
2022/11/09 01:28:45;;;;;;;14.55;7.70;;;;;;;4.32;100.00;96430.66;5056264;28;20040;-65
2022/11/09 01:31:14;;;;;;;13.15;7.32;;;;;;;4.41;100.00;96425.94;5047178;28;20037;-65
2022/11/09 01:33:40;;;;;;;11.80;5.63;;;;;;;4.31;100.00;96429.88;5049521;28;20065;-65
2022/11/09 01:36:08;;;;;;;12.52;8.52;;;;;;;4.06;100.00;96415.41;5037335;28;20318;-64
2022/11/09 01:38:36;;;;;;;15.43;9.38;;;;;;;3.71;100.00;96406.72;5042063;28;20121;-66
2022/11/09 01:41:02;;;;;;;15.40;10.20;;;;;;;3.55;100.00;96406.53;5043397;28;20554;-64
2022/11/09 01:43:28;;;;;;;16.33;10.10;;;;;;;3.54;100.00;96403.00;5036951;28;20051;-65
2022/11/09 01:46:18;;;;;;;17.05;9.18;;;;;;;3.65;100.00;96406.13;5040058;28;20101;-65
2022/11/09 01:48:52;;;;;;;15.48;10.15;;;;;;;3.73;100.00;96388.25;5024193;28;20132;-66
2022/11/09 01:51:32;;;;;;;19.33;10.35;;;;;;;3.74;100.00;96387.91;5038086;28;20091;-67
2022/11/09 01:54:04;;;;;;;16.95;8.82;;;;;;;3.85;100.00;96387.53;5041327;28;20091;-66
2022/11/09 01:56:31;;;;;;;11.35;8.50;;;;;;;3.95;100.00;96387.13;5038833;28;20040;-66
2022/11/09 01:59:04;;;;;;;17.83;8.40;;;;;;;4.01;100.00;96394.72;5047501;28;20041;-65
2022/11/09 02:01:31;;;;;;;16.05;8.68;;;;;;;4.02;100.00;96393.59;5038667;28;20045;-66
2022/11/09 02:04:09;;;;;;;15.13;8.60;;;;;;;4.11;100.00;96401.66;5058419;28;20070;-65
2022/11/09 02:06:35;;;;;;;12.43;8.50;;;;;;;4.10;100.00;96407.41;5043224;28;20155;-64
2022/11/09 02:09:14;;;;;;;15.07;8.57;;;;;;;4.00;100.00;96401.28;5042964;28;20505;-66
2022/11/09 02:11:40;;;;;;;14.37;7.97;;;;;;;3.90;100.00;96398.94;5044014;28;20044;-65
2022/11/09 02:14:06;;;;;;;10.52;7.28;;;;;;;3.87;100.00;96406.94;5046825;28;20044;-64
2022/11/09 02:16:33;;;;;;;12.07;7.60;;;;;;;3.89;100.00;96410.94;5046525;28;20482;-65
2022/11/09 02:19:01;;;;;;;14.30;8.20;;;;;;;3.92;100.00;96415.66;5034771;28;20040;-66
2022/11/09 02:21:30;;;;;;;10.43;7.28;;;;;;;3.77;100.00;96427.09;5036786;28;20508;-64
2022/11/09 02:23:56;;;;;;;14.35;7.53;;;;;;;3.68;100.00;96418.25;5041912;28;20102;-66
2022/11/09 02:26:39;;;;;;;13.32;7.18;;;;;;;3.62;100.00;96413.00;5034157;28;20060;-65
2022/11/09 02:29:08;;;;;;;14.85;7.32;;;;;;;3.57;100.00;96415.91;5036686;28;20044;-65
2022/11/09 02:31:38;;;;;;;14.50;7.10;;;;;;;3.58;100.00;96422.09;5041660;28;20505;-65
2022/11/09 02:34:32;;;;;;;15.05;7.25;;;;;;;3.61;100.00;96419.53;5038331;28;20048;-65
2022/11/09 02:36:58;;;;;;;10.40;7.60;;;;;;;3.61;100.00;96424.16;5023339;28;20060;-66
2022/11/09 02:39:25;;;;;;;12.70;7.50;;;;;;;3.79;100.00;96420.22;5036437;28;20573;-66
2022/11/09 02:42:01;;;;;;;14.50;7.25;;;;;;;4.02;100.00;96428.03;5023814;28;20036;-65
2022/11/09 02:44:29;;;;;;;11.25;7.18;;;;;;;4.01;100.00;96415.59;5036056;28;20106;-65
2022/11/09 02:46:54;;;;;;;10.60;6.90;;;;;;;3.81;100.00;96428.03;5041149;28;20378;-65
2022/11/09 02:49:20;;;;;;;13.77;7.25;;;;;;;3.78;100.00;96415.94;5036202;28;20043;-65
2022/11/09 02:51:45;;;;;;;9.93;6.97;;;;;;;3.05;100.00;96419.66;5041180;28;20044;-65
2022/11/09 02:54:11;;;;;;;12.98;8.05;;;;;;;2.95;100.00;96409.19;5033994;28;20045;-65
2022/11/09 02:56:36;;;;;;;18.02;7.53;;;;;;;2.96;100.00;96413.50;5039377;28;20097;-65
2022/11/09 02:59:02;;;;;;;14.55;8.63;;;;;;;3.01;100.00;96415.25;5022300;28;20037;-65
2022/11/09 03:01:29;;;;;;;12.65;7.78;;;;;;;3.14;100.00;96418.84;5037874;28;20493;-64
2022/11/09 03:03:54;;;;;;;15.85;7.90;;;;;;;3.49;100.00;96407.84;5025665;28;20071;-65
2022/11/09 03:06:19;;;;;;;12.25;7.13;;;;;;;3.82;100.00;96394.41;5035528;28;20033;-63
2022/11/09 03:08:45;;;;;;;11.73;7.95;;;;;;;3.96;100.00;96396.81;5040751;28;20044;-65
2022/11/09 03:11:10;;;;;;;12.65;7.45;;;;;;;4.13;100.00;96406.75;5034413;28;20049;-66
2022/11/09 03:13:36;;;;;;;9.40;6.43;;;;;;;4.17;100.00;96396.81;5040857;28;20040;-65
2022/11/09 03:16:06;;;;;;;11.57;6.85;;;;;;;4.15;100.00;96404.50;5040347;28;20041;-65
2022/11/09 03:18:32;;;;;;;13.90;7.38;;;;;;;4.16;100.00;96393.34;5040760;28;20033;-66
2022/11/09 03:21:06;;;;;;;10.65;6.88;;;;;;;4.12;100.00;96402.44;5041375;28;20037;-66
2022/11/09 03:23:32;;;;;;;11.15;7.22;;;;;;;3.93;100.00;96395.59;5037706;28;20402;-66
2022/11/09 03:25:57;;;;;;;16.13;7.80;;;;;;;3.77;100.00;96395.38;5038655;28;20776;-65
2022/11/09 03:28:23;;;;;;;10.07;7.57;;;;;;;3.77;100.00;96395.38;5034335;28;20194;-67
2022/11/09 03:30:48;;;;;;;11.00;7.47;;;;;;;3.89;100.00;96412.81;5040668;28;20043;-66
2022/11/09 03:33:14;;;;;;;17.25;7.30;;;;;;;4.03;100.00;96418.78;5036821;28;20112;-66
2022/11/09 03:35:39;;;;;;;11.02;6.78;;;;;;;4.09;100.00;96409.34;5023195;28;20381;-65
2022/11/09 03:38:05;;;;;;;9.80;6.68;;;;;;;4.12;100.00;96416.00;4999845;28;20094;-65
2022/11/09 03:40:31;;;;;;;10.90;6.68;;;;;;;4.10;100.00;96419.03;5013799;28;20447;-65
2022/11/09 03:42:57;;;;;;;13.13;6.35;;;;;;;4.16;100.00;96420.44;5046626;28;20041;-66
2022/11/09 03:45:23;;;;;;;11.50;7.30;;;;;;;4.21;100.00;96422.13;5022759;28;20403;-66
2022/11/09 03:47:49;;;;;;;12.20;6.95;;;;;;;3.88;100.00;96417.47;5001520;28;20037;-64
2022/11/09 03:50:16;;;;;;;13.23;8.02;;;;;;;3.58;100.00;96413.97;5034341;28;20099;-65
2022/11/09 03:52:45;;;;;;;11.88;7.60;;;;;;;3.37;100.00;96400.44;5040784;28;20482;-64
2022/11/09 03:55:11;;;;;;;9.82;7.50;;;;;;;3.53;100.00;96423.09;5032018;28;20037;-63
2022/11/09 03:57:37;;;;;;;12.00;7.07;;;;;;;3.72;100.00;96419.16;5040711;28;20040;-65
2022/11/09 04:00:04;;;;;;;10.43;7.38;;;;;;;3.76;100.00;96420.09;5027157;28;20037;-69
2022/11/09 04:02:30;;;;;;;10.55;7.45;;;;;;;3.67;100.00;96425.56;5036757;28;20057;-66
2022/11/09 04:04:56;;;;;;;11.95;7.38;;;;;;;3.69;100.00;96423.34;5033455;28;20051;-63
2022/11/09 04:07:21;;;;;;;12.02;6.45;;;;;;;3.77;100.00;96422.47;5041479;28;23168;-66
2022/11/09 04:09:46;;;;;;;9.18;5.90;;;;;;;3.82;100.00;96430.41;5040650;28;20045;-63
2022/11/09 04:12:12;;;;;;;12.80;6.07;;;;;;;3.99;100.00;96434.13;5035103;28;20045;-64
2022/11/09 04:14:37;;;;;;;14.45;7.32;;;;;;;3.97;100.00;96433.66;5039975;28;20036;-64
2022/11/09 04:17:03;;;;;;;11.15;6.47;;;;;;;4.01;100.00;96445.41;5037293;28;20037;-68
2022/11/09 04:19:29;;;;;;;11.90;6.65;;;;;;;4.05;100.00;96443.63;5004170;28;20090;-63
2022/11/09 04:21:54;;;;;;;17.55;7.57;;;;;;;3.99;100.00;96445.75;5029352;28;20068;-65
2022/11/09 04:24:19;;;;;;;14.18;6.63;;;;;;;3.95;100.00;96463.78;5044512;28;20060;-64
2022/11/09 04:26:46;;;;;;;8.50;6.20;;;;;;;4.09;100.00;96474.38;5048530;28;20586;-65
2022/11/09 04:29:11;;;;;;;8.55;6.80;;;;;;;4.22;100.00;96467.13;5036129;28;20575;-67
2022/11/09 04:31:37;;;;;;;10.32;6.45;;;;;;;4.30;100.00;96479.00;5039474;28;20041;-66
2022/11/09 04:34:02;;;;;;;12.05;6.03;;;;;;;4.44;100.00;96482.25;5038317;28;20041;-69
2022/11/09 04:36:28;;;;;;;10.15;6.18;;;;;;;4.46;100.00;96479.97;5019215;28;20056;-67
2022/11/09 04:38:53;;;;;;;8.52;5.70;;;;;;;4.54;100.00;96486.47;5022215;28;20057;-63
2022/11/09 04:41:18;;;;;;;8.82;5.88;;;;;;;4.63;100.00;96497.22;5035994;28;20044;-65
2022/11/09 04:43:44;;;;;;;8.40;5.65;;;;;;;4.78;100.00;96497.41;5037286;28;20145;-65
2022/11/09 04:46:09;;;;;;;10.02;5.93;;;;;;;4.98;100.00;96486.84;5012961;28;20041;-64
2022/11/09 04:48:34;;;;;;;7.95;4.80;;;;;;;5.08;100.00;96494.56;5038125;28;20072;-66
2022/11/09 04:51:01;;;;;;;12.38;5.68;;;;;;;5.06;100.00;96496.03;5040310;28;20128;-65
2022/11/09 04:53:28;;;;;;;10.23;5.38;;;;;;;5.03;100.00;96494.78;5032539;28;20041;-67
2022/11/09 04:55:53;;;;;;;8.63;5.03;;;;;;;5.08;100.00;96501.94;5020953;28;20048;-63
2022/11/09 04:58:19;;;;;;;13.25;5.85;;;;;;;5.11;100.00;96503.97;5017270;28;20040;-66
2022/11/09 05:00:44;;;;;;;8.82;5.40;;;;;;;5.13;100.00;96493.56;5039405;28;20045;-66
2022/11/09 05:03:10;;;;;;;9.57;4.95;;;;;;;5.19;100.00;96494.94;5027008;28;20037;-63
2022/11/09 05:05:36;;;;;;;7.13;4.57;;;;;;;5.26;100.00;96497.13;5021278;28;20068;-63
2022/11/09 05:08:03;;;;;;;11.55;6.13;;;;;;;5.20;100.00;96504.66;5004452;28;20029;-64
2022/11/09 05:10:30;;;;;;;8.43;5.20;;;;;;;5.20;100.00;96498.44;5003323;28;20045;-65
2022/11/09 05:12:59;;;;;;;7.15;4.50;;;;;;;5.17;100.00;96492.56;5039592;28;20067;-64
2022/11/09 05:15:25;;;;;;;;;;;;;;;5.17;100.00;96489.06;5048690;28;20040;-64
2022/11/09 05:17:51;;;;;;;11.68;4.82;;;;;;;5.26;100.00;96499.81;5041619;28;20254;-65
2022/11/09 05:20:16;;;;;;;7.32;4.68;;;;;;;5.33;100.00;96500.84;5036874;28;20131;-64
2022/11/09 05:25:25;;;;;;;8.98;5.15;;;;;;;5.06;100.00;96509.59;5037078;28;20164;-65
2022/11/09 05:27:51;;;;;;;8.57;5.10;;;;;;;5.04;100.00;96506.44;5043362;28;20109;-65
2022/11/09 05:30:17;;;;;;;9.13;5.15;;;;;;;5.08;100.00;96513.56;5038106;28;20041;-64
2022/11/09 05:32:42;;;;;;;8.40;5.00;;;;;;;5.22;100.00;96513.28;5024909;28;20040;-65
2022/11/09 05:35:08;;;;;;;8.38;4.60;;;;;;;5.31;100.00;96513.97;5037779;28;20055;-65
2022/11/09 05:37:33;;;;;;;7.57;4.78;;;;;;;5.44;100.00;96511.25;5042672;28;20069;-64
2022/11/09 05:39:59;;;;;;;8.43;4.75;;;;;;;5.40;100.00;96513.84;5043043;28;20037;-64
2022/11/09 05:42:25;;;;;;;8.05;4.90;;;;;;;5.38;100.00;96524.25;5038458;28;20051;-64
2022/11/09 05:44:50;;;;;;;13.40;5.07;;;;;;;5.39;100.00;96525.06;5039072;28;20036;-66
2022/11/09 05:47:15;;;;;;;9.18;5.43;;;;;;;5.44;100.00;96530.28;5019183;28;20577;-66
2022/11/09 05:49:41;;;;;;;8.80;5.13;;;;;;;5.56;100.00;96522.13;5043897;28;20041;-64
2022/11/09 05:52:06;;;;;;;11.13;5.50;;;;;;;5.60;100.00;96522.25;5038244;28;20045;-66
2022/11/09 05:54:32;;;;;;;13.20;5.55;;;;;;;5.57;100.00;96529.16;5039947;28;20055;-65
2022/11/09 05:56:57;;;;;;;9.50;4.78;;;;;;;5.54;100.00;96527.91;5042636;28;20041;-65
2022/11/09 05:59:22;;;;;;;10.00;5.30;;;;;;;5.51;100.00;96530.50;5038154;28;20601;-66
2022/11/09 06:01:48;;;;;;;7.47;4.82;;;;;;;5.51;100.00;96535.94;5042937;28;20124;-66
2022/11/09 06:04:13;;;;;;;14.85;4.75;;;;;;;5.62;100.00;96530.84;5037041;28;20067;-65
2022/11/09 06:06:39;;;;;;;8.65;5.20;;;;;;;5.60;100.00;96533.13;5042015;28;20429;-66
2022/11/09 06:09:04;;;;;;;11.02;5.43;;;;;;;5.57;100.00;96539.25;5039523;28;20098;-64
2022/11/09 06:11:30;;;;;;;9.60;5.32;;;;;;;5.49;100.00;96539.00;5042475;28;20037;-65
2022/11/09 06:13:55;;;;;;;10.20;5.80;;;;;;;5.47;100.00;96538.53;5041986;28;20397;-65
2022/11/09 06:16:20;;;;;;;7.63;4.97;;;;;;;5.48;100.00;96536.63;5021104;28;20049;-65
2022/11/09 06:18:46;;;;;;;10.65;5.45;;;;;;;5.47;100.00;96540.47;5055202;28;20136;-65
2022/11/09 06:21:11;;;;;;;8.52;5.03;;;;;;;5.63;100.00;96537.88;5052126;28;20041;-65
2022/11/09 06:23:37;;;;;;;12.35;5.43;;;;;;;5.67;100.00;96546.94;5049700;28;20077;-64
2022/11/09 06:26:08;;;;;;;9.80;5.22;;;;;;;5.57;100.00;96548.19;5041042;28;20033;-64
2022/11/09 06:28:35;;;;;;;11.07;5.85;;;;;;;5.43;100.00;96559.38;5046313;28;20393;-65
2022/11/09 06:31:02;;;;;;;10.85;5.90;;;;;;;5.42;100.00;96559.69;5033870;28;20079;-66
2022/11/09 06:33:32;;;;;;;10.40;5.90;;;;;;;5.45;100.00;96581.53;5051240;28;20488;-64
2022/11/09 06:35:58;;;;;;;8.65;5.80;;;;;;;5.49;100.00;96585.19;5046240;28;20045;-65
2022/11/09 06:38:27;;;;;;;11.93;6.20;;;;;;;5.54;100.00;96587.69;5022769;28;20514;-65
2022/11/09 06:40:54;;;;;;;9.82;6.60;;;;;;;5.74;100.00;96587.94;5044084;28;20045;-65
2022/11/09 06:43:22;;;;;;;14.20;6.95;;;;;;;5.93;100.00;96599.06;5037157;28;20110;-66
2022/11/09 06:45:47;;;;;;;16.42;6.78;;;;;;;5.99;100.00;96596.94;5038795;28;20118;-64
2022/11/09 06:48:13;;;;;;;9.98;6.10;;;;;;;5.99;100.00;96596.16;5046089;28;20041;-65
2022/11/09 06:50:39;;;;;;;12.93;6.35;;;;;;;6.07;100.00;96595.28;5044295;28;20044;-64
2022/11/09 06:53:06;;;;;;;10.07;6.10;;;;;;;5.94;100.00;96594.41;5034893;28;20128;-64
2022/11/09 06:55:34;;;;;;;8.80;5.75;;;;;;;5.71;100.00;96613.88;5040807;28;20079;-65
2022/11/09 06:58:05;;;;;;;9.40;6.20;;;;;;;5.61;100.00;96610.81;5040871;28;20036;-65
2022/11/09 07:00:31;;;;;;;9.23;6.05;;;;;;;5.45;100.00;96607.94;5041839;28;20033;-65
2022/11/09 07:02:56;;;;;;;12.25;6.28;;;;;;;5.37;100.00;96609.59;5023276;28;20111;-65
2022/11/09 07:05:21;;;;;;;14.23;6.60;;;;;;;5.46;100.00;96613.03;5037185;28;20671;-65
2022/11/09 07:07:47;;;;;;;10.23;6.68;;;;;;;5.61;100.00;96614.31;5041541;28;20045;-65
2022/11/09 07:10:13;;;;;;;10.13;6.25;;;;;;;5.60;100.00;96623.59;5036164;28;20076;-65
2022/11/09 07:12:39;;;;;;;14.32;8.07;;;;;;;5.58;100.00;96625.03;5042013;28;20401;-65
2022/11/09 07:15:06;;;;;;;9.40;6.57;;;;;;;5.77;100.00;96627.25;5037858;28;20402;-63
2022/11/09 07:17:33;;;;;;;10.02;6.05;;;;;;;6.01;100.00;96623.78;5040503;28;20045;-64
2022/11/09 07:19:58;;;;;;;15.57;9.00;;;;;;;6.12;100.00;96619.50;5041047;28;20036;-65
2022/11/09 07:22:26;;;;;;;24.73;11.52;;;;;;;6.51;100.00;96611.78;5036889;28;20501;-65
2022/11/09 07:24:51;;;;;;;19.00;10.25;;;;;;;6.68;100.00;96618.88;5041108;28;20056;-65
2022/11/09 07:27:17;;;;;;;23.00;10.82;;;;;;;6.59;100.00;96619.03;5035272;28;20072;-64
2022/11/09 07:29:42;;;;;;;18.40;8.43;;;;;;;6.64;100.00;96623.44;5040212;28;20098;-65
2022/11/09 07:32:07;;;;;;;13.95;8.20;;;;;;;6.65;100.00;96623.09;5036279;28;20486;-65
2022/11/09 07:34:33;;;;;;;15.68;9.88;;;;;;;6.84;100.00;96616.25;5023864;28;20037;-64
2022/11/09 07:36:58;;;;;;;14.90;7.75;;;;;;;6.75;100.00;96613.66;5039763;28;20040;-65
2022/11/09 07:39:24;;;;;;;16.60;8.50;;;;;;;6.82;100.00;96615.81;5036042;28;20858;-66
2022/11/09 07:41:49;;;;;;;27.35;13.73;;;;;;;7.18;100.00;96616.84;5040865;28;20558;-64
2022/11/09 07:44:17;;;;;;;21.65;11.88;;;;;;;7.36;100.00;96615.38;5035215;28;20036;-64
2022/11/09 07:46:47;;;;;;;25.27;12.20;;;;;;;7.42;100.00;96616.75;5041542;28;20413;-64
2022/11/09 07:49:14;;;;;;;19.50;10.50;;;;;;;7.57;100.00;96617.91;5037189;28;20136;-64
2022/11/09 07:51:40;;;;;;;30.67;14.50;;;;;;;7.78;100.00;96622.34;5040912;28;20047;-67
2022/11/09 07:54:06;;;;;;;29.35;16.77;;;;;;;7.78;100.00;96625.09;5018122;28;20029;-64
2022/11/09 07:56:31;;;;;;;23.30;13.73;;;;;;;8.10;100.00;96619.63;5040230;28;20130;-65
2022/11/09 07:58:57;;;;;;;20.55;12.68;;;;;;;8.19;100.00;96617.50;5022871;28;20048;-66
2022/11/09 08:01:22;;;;;;;15.35;9.15;;;;;;;8.41;100.00;96624.28;5036387;28;20154;-65
2022/11/09 08:03:47;;;;;;;14.55;9.48;;;;;;;8.53;100.00;96626.13;5041484;28;20048;-65
2022/11/09 08:06:13;;;;;;;14.40;9.20;;;;;;;8.80;100.00;96621.66;5015609;28;20064;-64
2022/11/09 08:08:38;;;;;;;17.38;9.75;;;;;;;9.07;100.00;96624.59;5040668;28;20056;-66
2022/11/09 08:11:04;;;;;;;15.82;10.13;;;;;;;9.51;100.00;96618.84;5037448;28;20045;-65
2022/11/09 08:13:29;;;;;;;12.95;8.27;;;;;;;9.65;100.00;96616.38;5040129;28;20033;-67
2022/11/09 08:15:55;;;;;;;13.32;8.98;;;;;;;9.69;100.00;96616.44;5040297;28;20387;-66
2022/11/09 08:18:21;;;;;;;13.80;8.73;;;;;;;9.81;100.00;96623.66;5039225;28;20041;-66
2022/11/09 08:20:47;;;;;;;13.73;8.57;;;;;;;9.83;100.00;96630.38;5050012;28;20045;-65
2022/11/09 08:23:15;;;;;;;15.40;7.45;;;;;;;9.85;100.00;96628.06;5036687;28;20108;-66
2022/11/09 08:25:41;;;;;;;16.40;7.68;;;;;;;9.94;100.00;96625.88;5040118;28;20080;-63
2022/11/09 08:28:07;;;;;;;12.88;7.63;;;;;;;9.89;100.00;96636.34;5037396;28;20044;-65
2022/11/09 08:30:33;;;;;;;12.75;7.22;;;;;;;9.80;100.00;96641.25;5043327;28;20094;-65
2022/11/09 08:32:59;;;;;;;12.63;7.50;;;;;;;9.75;100.00;96636.84;5038705;28;20037;-66
2022/11/09 08:35:26;;;;;;;11.15;7.40;;;;;;;9.77;100.00;96645.47;5035449;28;20526;-65
2022/11/09 08:37:53;;;;;;;11.85;7.07;;;;;;;9.75;100.00;96639.59;5040436;28;20085;-65
2022/11/09 08:40:24;;;;;;;14.05;7.70;;;;;;;9.84;100.00;96631.16;5036275;28;20041;-64
2022/11/09 08:42:50;;;;;;;12.00;6.50;;;;;;;9.85;100.00;96635.44;5039969;28;20052;-64
2022/11/09 08:45:15;;;;;;;11.05;6.22;;;;;;;9.98;100.00;96636.88;5035437;28;20068;-65
2022/11/09 08:47:42;;;;;;;12.02;7.80;;;;;;;9.96;100.00;96628.25;5045547;28;20501;-64
2022/11/09 08:50:09;;;;;;;10.10;6.35;;;;;;;10.07;100.00;96634.69;5035130;28;20417;-65
2022/11/09 08:52:35;;;;;;;12.32;6.90;;;;;;;10.30;100.00;96628.44;5042521;28;20409;-64
2022/11/09 08:55:01;;;;;;;13.07;7.40;;;;;;;10.52;100.00;96619.41;5045711;28;20045;-64
2022/11/09 08:57:27;;;;;;;12.05;7.47;;;;;;;10.82;100.00;96617.88;5042226;28;20041;-64
2022/11/09 08:59:52;;;;;;;12.27;6.90;;;;;;;11.14;100.00;96618.31;5044893;28;20083;-64
2022/11/09 09:02:19;;;;;;;8.88;6.47;;;;;;;11.40;100.00;96613.94;5038647;28;20033;-63
2022/11/09 09:04:44;;;;;;;11.65;6.57;;;;;;;11.40;100.00;96613.94;5045188;28;20565;-65
2022/11/09 09:07:11;;;;;;;10.93;6.50;;;;;;;11.57;100.00;96627.03;5039226;28;20056;-65
2022/11/09 09:09:39;;;;;;;12.13;5.80;;;;;;;11.80;100.00;96615.16;5048607;28;20394;-65
2022/11/09 09:12:06;;;;;;;11.18;6.28;;;;;;;12.16;100.00;96612.78;5047487;28;20037;-65
2022/11/09 09:14:31;;;;;;;9.32;5.60;;;;;;;12.55;100.00;96615.84;5051317;28;20184;-64
2022/11/09 09:16:57;;;;;;;14.05;6.40;;;;;;;12.95;100.00;96614.13;5046872;28;20098;-65
2022/11/09 09:19:22;;;;;;;9.40;5.53;;;;;;;13.19;100.00;96612.66;5040717;28;20523;-65
2022/11/09 09:21:48;;;;;;;7.85;4.40;;;;;;;13.36;100.00;96624.16;5042831;28;20600;-64
2022/11/09 09:24:13;;;;;;;6.80;4.03;;;;;;;13.35;100.00;96622.59;5038734;28;20053;-66
2022/11/09 09:26:39;;;;;;;8.38;3.90;;;;;;;13.32;100.00;96615.09;5042430;28;20063;-66
2022/11/09 09:29:04;;;;;;;13.05;5.88;;;;;;;12.96;100.00;96603.91;5039638;28;20041;-61
2022/11/09 09:31:29;;;;;;;12.40;4.80;;;;;;;13.17;100.00;96605.97;5024767;28;20114;-65
2022/11/09 09:33:55;;;;;;;10.30;5.57;;;;;;;13.51;100.00;96614.78;5042474;28;20141;-64
2022/11/09 09:36:23;;;;;;;11.88;4.50;;;;;;;13.82;100.00;96604.25;5034660;28;20040;-65
2022/11/09 09:38:53;;;;;;;16.77;8.20;;;;;;;14.17;100.00;96610.19;5034816;28;20106;-67
2022/11/09 09:41:33;;;;;;;8.80;4.50;;;;;;;13.84;100.00;96599.13;5038769;28;20136;-64
2022/11/09 09:44:07;;;;;;;6.80;3.55;;;;;;;13.94;100.00;96595.63;5043830;28;20116;-64
2022/11/09 09:46:56;;;;;;;7.55;3.40;;;;;;;13.73;100.00;96604.63;5041919;28;20056;-64
2022/11/09 09:49:34;;;;;;;6.00;3.87;;;;;;;14.06;100.00;96599.97;5044689;28;20499;-66
2022/11/09 09:52:35;;;;;;;10.82;4.13;;;;;;;14.28;100.00;96591.72;5050742;28;20048;-66
2022/11/09 09:55:27;;;;;;;8.85;3.50;;;;;;;14.12;100.00;96609.41;5010961;28;20078;-67
2022/11/09 09:57:58;;;;;;;7.97;3.85;;;;;;;13.98;100.00;96592.88;5032596;28;20124;-65
2022/11/09 10:00:26;;;;;;;6.85;3.30;;;;;;;14.25;100.00;96600.78;5038904;28;20459;-64
2022/11/09 10:02:53;;;;;;;4.97;3.28;;;;;;;14.34;100.00;96604.69;5042814;28;20453;-65
2022/11/09 10:05:26;;;;;;;5.47;3.00;;;;;;;14.12;100.00;96598.41;5037638;28;20051;-67
2022/11/09 10:07:58;;;;;;;7.95;3.17;;;;;;;13.91;100.00;96598.38;5027207;28;20040;-63
2022/11/09 10:10:45;;;;;;;4.95;2.83;;;;;;;13.52;100.00;96601.81;5040711;28;20139;-63
2022/11/09 10:13:36;;;;;;;6.85;3.40;;;;;;;13.16;100.00;96599.69;5037313;28;20040;-63
2022/11/09 10:16:09;;;;;;;7.53;3.72;;;;;;;13.32;100.00;96595.84;5034045;28;20115;-67
2022/11/09 10:19:16;;;;;;;6.22;3.42;;;;;;;13.31;100.00;96597.03;5043675;28;20056;-62
2022/11/09 10:21:57;;;;;;;9.38;4.50;;;;;;;13.44;100.00;96592.75;5043559;28;20049;-63
2022/11/09 10:24:28;;;;;;;8.38;4.60;;;;;;;14.42;100.00;96583.47;5036534;28;20049;-69
2022/11/09 10:27:01;;;;;;;10.55;5.13;;;;;;;14.43;100.00;96568.47;5041666;28;20059;-64
2022/11/09 10:29:45;;;;;;;7.70;4.10;;;;;;;14.72;100.00;96565.72;5048427;28;20037;-65
2022/11/09 10:32:20;;;;;;;11.82;4.35;;;;;;;14.81;100.00;96565.31;5038042;28;20044;-64
2022/11/09 10:35:02;;;;;;;5.60;3.05;;;;;;;15.02;100.00;96572.75;5041350;28;20482;-65
2022/11/09 10:37:33;;;;;;;6.85;3.78;;;;;;;15.02;100.00;96570.75;5022023;28;20044;-65
2022/11/09 10:40:39;;;;;;;8.80;3.92;;;;;;;15.13;100.00;96572.72;5043625;28;20090;-66
2022/11/09 10:43:09;;;;;;;6.05;3.05;;;;;;;14.62;100.00;96578.34;5022880;28;20045;-66
2022/11/09 10:45:36;;;;;;;5.78;2.90;;;;;;;14.65;100.00;96571.25;5049521;28;20079;-66
2022/11/09 10:48:03;;;;;;;8.05;2.90;;;;;;;14.47;100.00;96579.50;5048169;28;20112;-71
2022/11/09 10:51:05;;;;;;;6.18;3.05;;;;;;;14.01;100.00;96583.84;5043802;28;20064;-65
2022/11/09 10:53:32;;;;;;;5.47;3.00;;;;;;;14.22;100.00;96583.03;4960817;28;20527;-64
2022/11/09 10:56:16;;;;;;;5.90;2.95;;;;;;;14.04;100.00;96568.50;5026648;28;20037;-64
2022/11/09 10:58:52;;;;;;;4.63;3.08;;;;;;;14.08;100.00;96574.78;5042253;28;20083;-67
2022/11/09 11:01:21;;;;;;;11.07;4.57;;;;;;;13.63;100.00;96575.13;5037665;28;20047;-66
2022/11/09 11:03:54;;;;;;;5.68;3.45;;;;;;;13.77;100.00;96564.16;5041712;28;20056;-64
2022/11/09 11:06:20;;;;;;;6.82;3.35;;;;;;;13.66;100.00;96562.53;5037192;28;20041;-66
2022/11/09 11:08:48;;;;;;;6.50;3.30;;;;;;;13.56;100.00;96564.88;5042688;28;20559;-63
2022/11/09 11:11:16;;;;;;;7.90;3.05;;;;;;;13.71;100.00;96562.16;5035543;28;20110;-64
2022/11/09 11:13:42;;;;;;;6.30;3.40;;;;;;;13.77;100.00;96557.84;5042618;28;20041;-62
2022/11/09 11:16:30;;;;;;;6.93;3.40;;;;;;;14.04;100.00;96574.00;5035973;28;20436;-63
2022/11/09 11:18:56;;;;;;;6.50;4.20;;;;;;;13.73;100.00;96568.06;5041254;28;20047;-66
2022/11/09 11:21:24;;;;;;;6.22;3.80;;;;;;;13.54;100.00;96569.19;5043266;28;20430;-68
2022/11/09 11:24:14;;;;;;;6.05;3.40;;;;;;;13.29;100.00;96569.88;5044850;28;20044;-62
2022/11/09 11:26:52;;;;;;;7.13;3.50;;;;;;;13.47;100.00;96569.16;5042152;28;20043;-64
2022/11/09 11:29:17;;;;;;;9.32;4.45;;;;;;;13.16;100.00;96563.13;5036611;28;20072;-65
2022/11/09 11:31:43;;;;;;;6.82;4.13;;;;;;;13.25;100.00;96569.06;5042611;28;20068;-64
2022/11/09 11:34:13;;;;;;;6.70;3.90;;;;;;;13.36;100.00;96563.63;5036485;28;20083;-66